createdAt,value
2018-04-30T00:00:44.782Z,99.90
2018-04-30T00:01:48.027Z,99.90
2018-04-30T00:02:50.662Z,99.90
2018-04-30T00:03:53.131Z,99.90
2018-04-30T00:04:55.617Z,99.90
2018-04-30T00:05:58.116Z,99.90
2018-04-30T00:07:01.342Z,99.90
2018-04-30T00:08:03.835Z,99.90
2018-04-30T00:09:06.337Z,99.90
2018-04-30T00:10:09.030Z,99.90
2018-04-30T00:11:11.611Z,99.90
2018-04-30T00:12:14.082Z,99.90
2018-04-30T00:13:16.529Z,99.90
2018-04-30T00:14:19.002Z,99.90
2018-04-30T00:15:21.508Z,99.90
2018-04-30T00:16:23.994Z,99.90
2018-04-30T00:17:27.226Z,99.90
2018-04-30T00:18:30.488Z,99.90
2018-04-30T00:19:32.952Z,99.90
2018-04-30T00:20:35.434Z,99.90
2018-04-30T00:21:39.410Z,99.90
2018-04-30T00:22:41.910Z,99.90
2018-04-30T00:23:45.272Z,99.90
2018-04-30T00:24:47.733Z,99.90
2018-04-30T00:25:50.982Z,99.90
2018-04-30T00:26:53.482Z,99.90
2018-04-30T00:27:55.944Z,99.90
2018-04-30T00:28:58.421Z,99.90
2018-04-30T00:30:00.950Z,99.90
2018-04-30T00:31:03.440Z,99.90
2018-04-30T00:32:05.915Z,99.90
2018-04-30T00:33:08.415Z,99.90
2018-04-30T00:34:10.915Z,99.90
2018-04-30T00:35:14.172Z,99.90
2018-04-30T00:36:17.432Z,99.90
2018-04-30T00:37:19.880Z,99.90
2018-04-30T00:38:22.948Z,99.90
2018-04-30T00:39:25.413Z,99.90
2018-04-30T00:40:27.919Z,99.90
2018-04-30T00:41:31.148Z,99.90
2018-04-30T00:42:33.737Z,99.90
2018-04-30T00:43:36.230Z,99.90
2018-04-30T00:44:38.748Z,99.90
2018-04-30T00:45:42.119Z,99.90
2018-04-30T00:46:44.617Z,99.90
2018-04-30T00:47:47.900Z,99.90
2018-04-30T00:48:50.461Z,99.90
2018-04-30T00:49:53.734Z,99.90
2018-04-30T00:50:56.970Z,99.90
2018-04-30T00:52:00.219Z,99.90
2018-04-30T00:53:02.721Z,99.90
2018-04-30T00:54:05.180Z,99.90
2018-04-30T00:55:07.671Z,99.90
2018-04-30T00:56:10.178Z,99.90
2018-04-30T00:57:12.677Z,99.90
2018-04-30T00:58:15.184Z,99.90
2018-04-30T00:59:17.661Z,99.90
2018-04-30T01:00:20.137Z,99.90
2018-04-30T01:01:22.637Z,99.90
2018-04-30T01:02:25.972Z,99.90
2018-04-30T01:03:29.274Z,99.90
2018-04-30T01:04:31.717Z,99.90
2018-04-30T01:05:34.188Z,99.90
2018-04-30T01:06:36.685Z,99.90
2018-04-30T01:07:39.168Z,99.90
2018-04-30T01:08:41.660Z,99.90
2018-04-30T01:09:45.111Z,99.90
2018-04-30T01:10:47.585Z,99.90
2018-04-30T01:11:50.069Z,99.90
2018-04-30T01:12:52.569Z,99.90
2018-04-30T01:13:55.831Z,99.90
2018-04-30T01:14:58.867Z,99.90
2018-04-30T01:16:01.441Z,99.90
2018-04-30T01:17:03.924Z,99.90
2018-04-30T01:18:06.401Z,99.90
2018-04-30T01:19:08.875Z,99.90
2018-04-30T01:20:11.370Z,99.90
2018-04-30T01:21:13.856Z,99.90
2018-04-30T01:22:16.370Z,99.90
2018-04-30T01:23:18.843Z,99.90
2018-04-30T01:24:22.220Z,99.90
2018-04-30T01:25:24.750Z,99.90
2018-04-30T01:26:27.224Z,99.90
2018-04-30T01:27:29.716Z,99.90
2018-04-30T01:28:32.236Z,99.90
2018-04-30T01:29:34.744Z,99.90
2018-04-30T01:30:37.230Z,99.90
2018-04-30T01:31:39.743Z,99.90
2018-04-30T01:32:42.342Z,99.90
2018-04-30T01:33:44.818Z,99.90
2018-04-30T01:34:47.287Z,99.90
2018-04-30T01:35:49.777Z,99.90
2018-04-30T01:36:53.020Z,99.90
2018-04-30T01:37:56.277Z,99.90
2018-04-30T01:38:58.836Z,99.90
2018-04-30T01:40:01.315Z,99.90
2018-04-30T01:41:04.564Z,99.90
2018-04-30T01:42:07.925Z,99.90
2018-04-30T01:43:10.420Z,99.90
2018-04-30T01:44:12.897Z,99.90
2018-04-30T01:45:15.400Z,99.90
2018-04-30T01:46:17.881Z,99.90
2018-04-30T01:47:20.372Z,99.90
2018-04-30T01:48:22.854Z,99.90
2018-04-30T01:49:26.121Z,99.90
2018-04-30T01:50:29.367Z,99.90
2018-04-30T01:51:31.829Z,99.90
2018-04-30T01:52:34.303Z,99.90
2018-04-30T01:53:36.815Z,99.90
2018-04-30T01:54:40.051Z,99.90
2018-04-30T01:55:43.289Z,99.90
2018-04-30T01:56:46.555Z,99.90
2018-04-30T01:57:49.030Z,99.90
2018-04-30T01:58:52.239Z,99.90
2018-04-30T01:59:54.704Z,99.90
2018-04-30T02:00:57.781Z,99.90
2018-04-30T02:02:00.724Z,99.90
2018-04-30T02:03:03.197Z,99.90
2018-04-30T02:04:05.661Z,99.90
2018-04-30T02:05:08.937Z,99.90
2018-04-30T02:06:11.410Z,99.90
2018-04-30T02:07:14.697Z,99.90
2018-04-30T02:08:17.156Z,99.90
2018-04-30T02:09:19.720Z,99.90
2018-04-30T02:10:22.961Z,99.90
2018-04-30T02:11:26.206Z,99.90
2018-04-30T02:12:29.579Z,99.90
2018-04-30T02:13:32.067Z,99.90
2018-04-30T02:14:35.313Z,99.90
2018-04-30T02:15:38.541Z,99.90
2018-04-30T02:16:41.783Z,99.90
2018-04-30T02:17:45.055Z,99.90
2018-04-30T02:18:47.557Z,99.90
2018-04-30T02:19:50.869Z,99.90
2018-04-30T02:20:53.364Z,99.90
2018-04-30T02:21:56.190Z,99.90
2018-04-30T02:22:59.432Z,99.90
2018-04-30T02:24:01.926Z,99.90
2018-04-30T02:25:05.193Z,99.90
2018-04-30T02:26:08.255Z,99.90
2018-04-30T02:27:10.761Z,99.90
2018-04-30T02:28:13.289Z,99.90
2018-04-30T02:29:15.783Z,99.90
2018-04-30T02:30:18.278Z,99.90
2018-04-30T02:31:20.764Z,99.90
2018-04-30T02:32:23.280Z,99.90
2018-04-30T02:33:26.551Z,99.90
2018-04-30T02:34:29.030Z,99.90
2018-04-30T02:35:31.492Z,99.90
2018-04-30T02:36:34.009Z,99.90
2018-04-30T02:37:36.488Z,99.90
2018-04-30T02:38:38.964Z,99.90
2018-04-30T02:39:41.424Z,99.90
2018-04-30T02:40:43.902Z,99.90
2018-04-30T02:41:46.391Z,99.90
2018-04-30T02:42:48.905Z,99.90
2018-04-30T02:43:51.384Z,99.90
2018-04-30T02:44:53.848Z,99.90
2018-04-30T02:45:56.339Z,99.90
2018-04-30T02:46:58.895Z,99.90
2018-04-30T02:48:01.349Z,99.90
2018-04-30T02:49:03.836Z,99.90
2018-04-30T02:50:06.309Z,99.90
2018-04-30T02:51:09.587Z,99.90
2018-04-30T02:52:12.047Z,99.90
2018-04-30T02:53:14.615Z,99.90
2018-04-30T02:54:17.080Z,99.90
2018-04-30T02:55:19.587Z,99.90
2018-04-30T02:56:22.110Z,99.90
2018-04-30T02:57:24.600Z,99.90
2018-04-30T02:58:27.833Z,99.90
2018-04-30T02:59:31.062Z,99.90
2018-04-30T03:00:33.547Z,99.90
2018-04-30T03:01:36.025Z,99.90
2018-04-30T03:02:38.513Z,99.90
2018-04-30T03:03:41.005Z,99.90
2018-04-30T03:04:43.524Z,99.90
2018-04-30T03:05:46.049Z,99.90
2018-04-30T03:06:48.508Z,99.90
2018-04-30T03:07:51.047Z,99.90
2018-04-30T03:08:53.566Z,99.90
2018-04-30T03:09:56.811Z,99.90
2018-04-30T03:10:59.310Z,99.90
2018-04-30T03:12:01.797Z,99.90
2018-04-30T03:13:04.353Z,99.90
2018-04-30T03:14:06.870Z,99.90
2018-04-30T03:15:09.347Z,99.90
2018-04-30T03:16:11.960Z,99.90
2018-04-30T03:17:14.468Z,99.90
2018-04-30T03:18:16.987Z,99.90
2018-04-30T03:19:19.472Z,99.90
2018-04-30T03:20:21.962Z,99.90
2018-04-30T03:21:24.433Z,99.90
2018-04-30T03:22:27.795Z,99.90
2018-04-30T03:23:30.284Z,99.90
2018-04-30T03:24:32.853Z,99.90
2018-04-30T03:25:35.313Z,99.90
2018-04-30T03:26:37.779Z,99.90
2018-04-30T03:27:41.021Z,99.90
2018-04-30T03:28:44.300Z,99.90
2018-04-30T03:29:46.763Z,99.90
2018-04-30T03:30:49.236Z,99.90
2018-04-30T03:31:51.701Z,99.90
2018-04-30T03:32:54.197Z,99.90
2018-04-30T03:33:56.704Z,99.90
2018-04-30T03:34:59.941Z,99.90
2018-04-30T03:36:03.182Z,99.90
2018-04-30T03:37:06.406Z,99.90
2018-04-30T03:38:08.965Z,99.90
2018-04-30T03:39:11.437Z,99.90
2018-04-30T03:40:13.909Z,99.90
2018-04-30T03:41:16.379Z,99.90
2018-04-30T03:42:18.847Z,99.90
2018-04-30T03:43:22.117Z,99.90
2018-04-30T03:44:24.641Z,99.90
2018-04-30T03:45:27.115Z,99.90
2018-04-30T03:46:30.429Z,99.90
2018-04-30T03:47:32.899Z,99.90
2018-04-30T03:48:36.159Z,99.90
2018-04-30T03:49:39.504Z,99.90
2018-04-30T03:50:41.910Z,99.90
2018-04-30T03:51:44.389Z,99.90
2018-04-30T03:52:46.860Z,99.90
2018-04-30T03:53:49.332Z,99.90
2018-04-30T03:54:51.786Z,99.90
2018-04-30T03:55:54.362Z,99.90
2018-04-30T03:56:56.850Z,99.90
2018-04-30T03:57:59.346Z,99.90
2018-04-30T03:59:01.832Z,99.90
2018-04-30T04:00:05.085Z,99.90
2018-04-30T04:02:59.385Z,99.90
2018-04-30T04:04:13.746Z,99.90
2018-04-30T04:05:28.140Z,99.90
2018-04-30T04:06:43.234Z,99.90
2018-04-30T04:07:45.733Z,99.90
2018-04-30T04:08:48.330Z,99.90
2018-04-30T04:09:50.808Z,99.90
2018-04-30T04:10:53.384Z,99.90
2018-04-30T04:11:55.902Z,99.90
2018-04-30T04:12:58.399Z,99.90
2018-04-30T04:14:01.645Z,99.90
2018-04-30T04:15:04.879Z,99.90
2018-04-30T04:16:08.148Z,99.90
2018-04-30T04:17:10.908Z,99.90
2018-04-30T04:18:13.389Z,99.90
2018-04-30T04:19:16.628Z,99.90
2018-04-30T04:20:19.891Z,99.90
2018-04-30T04:21:22.367Z,99.90
2018-04-30T04:22:24.843Z,99.90
2018-04-30T04:24:40.632Z,99.90
2018-04-30T04:25:43.124Z,99.90
2018-04-30T04:26:45.579Z,99.90
2018-04-30T04:27:48.061Z,99.90
2018-04-30T04:28:50.640Z,99.90
2018-04-30T04:29:53.165Z,99.90
2018-04-30T04:30:55.760Z,99.90
2018-04-30T04:31:59.064Z,99.90
2018-04-30T04:33:01.535Z,99.90
2018-04-30T04:34:04.907Z,99.90
2018-04-30T04:35:07.397Z,99.90
2018-04-30T04:36:11.563Z,99.90
2018-04-30T04:37:14.806Z,99.90
2018-04-30T04:38:17.270Z,99.90
2018-04-30T04:39:19.759Z,99.90
2018-04-30T04:40:22.994Z,99.90
2018-04-30T04:41:25.857Z,99.90
2018-04-30T04:42:28.330Z,99.90
2018-04-30T04:43:31.280Z,99.90
2018-04-30T04:44:33.764Z,99.90
2018-04-30T04:45:36.248Z,99.90
2018-04-30T04:46:39.534Z,99.90
2018-04-30T04:47:42.023Z,99.90
2018-04-30T04:48:45.273Z,99.90
2018-04-30T04:49:48.529Z,99.90
2018-04-30T04:50:51.005Z,99.90
2018-04-30T04:51:53.473Z,99.90
2018-04-30T04:52:55.965Z,99.90
2018-04-30T04:53:58.461Z,99.90
2018-04-30T04:55:00.995Z,99.90
2018-04-30T04:56:03.445Z,99.90
2018-04-30T04:57:05.906Z,99.90
2018-04-30T04:58:09.156Z,99.90
2018-04-30T04:59:11.651Z,99.90
2018-04-30T05:00:14.888Z,99.90
2018-04-30T05:01:18.115Z,99.90
2018-04-30T05:02:20.683Z,99.90
2018-04-30T05:03:23.068Z,99.90
2018-04-30T05:04:26.326Z,99.90
2018-04-30T05:05:28.810Z,99.90
2018-04-30T05:06:31.536Z,99.90
2018-04-30T05:07:34.027Z,99.90
2018-04-30T05:08:36.583Z,99.90
2018-04-30T05:09:39.075Z,99.90
2018-04-30T05:10:41.565Z,99.90
2018-04-30T05:11:44.033Z,99.90
2018-04-30T05:12:46.502Z,99.90
2018-04-30T05:13:49.126Z,99.90
2018-04-30T05:14:51.616Z,99.90
2018-04-30T05:15:54.095Z,99.90
2018-04-30T05:16:57.373Z,99.90
2018-04-30T05:17:59.844Z,99.90
2018-04-30T05:19:02.415Z,99.90
2018-04-30T05:20:04.940Z,99.90
2018-04-30T05:21:07.427Z,99.90
2018-04-30T05:22:09.882Z,99.90
2018-04-30T05:23:13.127Z,99.90
2018-04-30T05:24:15.601Z,99.90
2018-04-30T05:25:18.117Z,99.90
2018-04-30T05:26:20.581Z,99.90
2018-04-30T05:27:23.170Z,99.90
2018-04-30T05:28:25.756Z,99.90
2018-04-30T05:29:29.017Z,99.90
2018-04-30T05:30:31.512Z,99.90
2018-04-30T05:31:34.763Z,99.90
2018-04-30T05:32:37.992Z,99.90
2018-04-30T05:33:41.264Z,99.90
2018-04-30T05:34:43.764Z,99.90
2018-04-30T05:35:47.003Z,99.90
2018-04-30T05:36:50.252Z,99.90
2018-04-30T05:37:53.533Z,99.90
2018-04-30T05:38:56.032Z,99.90
2018-04-30T05:39:58.605Z,99.90
2018-04-30T05:41:01.064Z,99.90
2018-04-30T05:42:04.362Z,99.90
2018-04-30T05:43:06.831Z,99.90
2018-04-30T05:44:09.393Z,99.90
2018-04-30T05:45:11.898Z,99.90
2018-04-30T05:46:15.134Z,99.90
2018-04-30T05:47:18.389Z,99.90
2018-04-30T05:48:21.635Z,99.90
2018-04-30T05:49:24.117Z,99.90
2018-04-30T05:50:27.012Z,99.90
2018-04-30T05:51:29.468Z,99.90
2018-04-30T05:52:31.932Z,99.90
2018-04-30T05:53:35.236Z,99.90
2018-04-30T05:54:37.716Z,99.90
2018-04-30T05:55:40.192Z,99.90
2018-04-30T05:56:42.675Z,99.90
2018-04-30T05:57:45.131Z,99.90
2018-04-30T05:58:47.640Z,99.90
2018-04-30T05:59:50.109Z,99.90
2018-04-30T06:00:52.710Z,99.90
2018-04-30T06:01:55.191Z,99.90
2018-04-30T06:02:57.692Z,99.90
2018-04-30T06:04:00.168Z,99.90
2018-04-30T06:05:02.659Z,99.90
2018-04-30T06:06:05.944Z,99.90
2018-04-30T06:07:08.422Z,99.90
2018-04-30T06:08:10.907Z,99.90
2018-04-30T06:09:13.387Z,99.90
2018-04-30T06:10:15.873Z,99.90
2018-04-30T06:11:18.337Z,99.90
2018-04-30T06:12:20.833Z,99.90
2018-04-30T06:13:24.072Z,99.90
2018-04-30T06:14:27.315Z,99.90
2018-04-30T06:15:29.801Z,99.90
2018-04-30T06:16:32.310Z,99.90
2018-04-30T06:17:34.891Z,99.90
2018-04-30T06:18:37.354Z,99.90
2018-04-30T06:19:39.903Z,99.90
2018-04-30T06:20:42.436Z,99.90
2018-04-30T06:21:44.916Z,99.90
2018-04-30T06:22:47.490Z,99.90
2018-04-30T06:23:49.956Z,99.90
2018-04-30T06:24:53.200Z,99.90
2018-04-30T06:25:56.463Z,99.90
2018-04-30T06:26:59.770Z,99.90
2018-04-30T06:28:02.458Z,99.90
2018-04-30T06:29:05.133Z,99.90
2018-04-30T06:30:07.616Z,99.90
2018-04-30T06:31:10.114Z,99.90
2018-04-30T06:32:12.575Z,99.90
2018-04-30T06:33:15.074Z,99.90
2018-04-30T06:34:17.599Z,99.90
2018-04-30T06:35:20.163Z,99.90
2018-04-30T06:36:22.649Z,99.90
2018-04-30T06:37:25.119Z,99.90
2018-04-30T06:38:27.592Z,99.90
2018-04-30T06:39:31.534Z,99.90
2018-04-30T06:40:34.798Z,99.40
2018-04-30T06:41:37.312Z,99.40
2018-04-30T06:42:39.789Z,99.00
2018-04-30T06:43:43.299Z,98.50
2018-04-30T06:44:45.784Z,98.30
2018-04-30T06:45:49.026Z,97.40
2018-04-30T06:46:52.299Z,97.20
2018-04-30T06:47:54.801Z,97.10
2018-04-30T06:48:58.043Z,96.50
2018-04-30T06:50:01.300Z,97.30
2018-04-30T06:51:03.795Z,97.00
2018-04-30T06:52:06.306Z,96.60
2018-04-30T06:53:08.767Z,96.40
2018-04-30T06:54:12.040Z,96.00
2018-04-30T06:55:14.722Z,96.00
2018-04-30T06:56:17.292Z,96.10
2018-04-30T06:57:19.765Z,95.90
2018-04-30T06:58:22.253Z,95.20
2018-04-30T06:59:24.735Z,95.20
2018-04-30T07:00:28.040Z,94.40
2018-04-30T07:01:30.687Z,94.50
2018-04-30T07:02:33.157Z,95.10
2018-04-30T07:03:35.673Z,94.90
2018-04-30T07:04:38.228Z,95.00
2018-04-30T07:05:40.734Z,95.30
2018-04-30T07:06:43.288Z,95.40
2018-04-30T07:07:45.816Z,95.30
2018-04-30T07:08:48.304Z,95.50
2018-04-30T07:09:50.800Z,95.10
2018-04-30T07:10:53.315Z,95.20
2018-04-30T07:11:55.799Z,95.00
2018-04-30T07:12:58.362Z,94.60
2018-04-30T07:14:00.911Z,95.00
2018-04-30T07:15:04.163Z,95.40
2018-04-30T07:16:07.480Z,95.20
2018-04-30T07:17:09.967Z,95.10
2018-04-30T07:18:12.471Z,95.20
2018-04-30T07:19:15.755Z,95.20
2018-04-30T07:20:18.285Z,95.30
2018-04-30T07:21:20.783Z,94.90
2018-04-30T07:22:23.291Z,94.60
2018-04-30T07:23:25.779Z,94.60
2018-04-30T07:24:28.261Z,94.50
2018-04-30T07:25:30.783Z,94.70
2018-04-30T07:26:33.306Z,95.10
2018-04-30T07:27:35.819Z,94.40
2018-04-30T07:28:38.348Z,94.50
2018-04-30T07:29:40.851Z,94.40
2018-04-30T07:30:43.449Z,94.80
2018-04-30T07:31:45.952Z,94.30
2018-04-30T07:32:48.473Z,95.00
2018-04-30T07:33:50.946Z,94.80
2018-04-30T07:34:53.508Z,94.40
2018-04-30T07:35:56.039Z,94.20
2018-04-30T07:36:58.527Z,94.30
2018-04-30T07:38:01.790Z,94.00
2018-04-30T07:39:05.961Z,94.20
2018-04-30T07:40:08.444Z,94.20
2018-04-30T07:41:10.965Z,93.80
2018-04-30T07:42:13.581Z,93.30
2018-04-30T07:43:16.099Z,93.10
2018-04-30T07:44:18.655Z,93.20
2018-04-30T07:45:21.127Z,93.10
2018-04-30T07:46:23.706Z,92.00
2018-04-30T07:47:26.217Z,91.60
2018-04-30T07:48:28.696Z,91.30
2018-04-30T07:49:33.332Z,91.00
2018-04-30T07:50:35.805Z,91.00
2018-04-30T07:51:38.337Z,90.60
2018-04-30T07:52:40.843Z,90.30
2018-04-30T07:53:44.236Z,89.30
2018-04-30T07:54:46.727Z,89.30
2018-04-30T07:55:49.468Z,89.30
2018-04-30T07:56:51.972Z,88.50
2018-04-30T07:57:54.505Z,87.50
2018-04-30T07:58:56.990Z,86.80
2018-04-30T07:59:59.738Z,86.40
2018-04-30T08:01:03.084Z,87.70
2018-04-30T08:02:06.485Z,87.30
2018-04-30T08:03:09.137Z,87.30
2018-04-30T08:04:11.549Z,87.70
2018-04-30T08:05:14.953Z,86.90
2018-04-30T08:06:17.496Z,85.40
2018-04-30T08:07:20.754Z,86.60
2018-04-30T08:08:23.275Z,86.00
2018-04-30T08:09:25.760Z,86.20
2018-04-30T08:10:28.402Z,86.30
2018-04-30T08:11:30.891Z,88.90
2018-04-30T08:12:34.171Z,86.90
2018-04-30T08:13:36.709Z,86.90
2018-04-30T08:14:39.216Z,87.70
2018-04-30T08:15:41.709Z,87.40
2018-04-30T08:16:44.196Z,86.10
2018-04-30T08:17:46.710Z,86.40
2018-04-30T08:18:49.212Z,86.30
2018-04-30T08:19:52.351Z,86.40
2018-04-30T08:20:54.847Z,85.40
2018-04-30T08:21:57.437Z,86.10
2018-04-30T08:22:59.944Z,85.10
2018-04-30T08:24:02.468Z,83.10
2018-04-30T08:25:05.019Z,82.10
2018-04-30T08:26:07.489Z,82.20
2018-04-30T08:27:09.981Z,82.90
2018-04-30T08:28:13.268Z,85.50
2018-04-30T08:29:16.500Z,80.70
2018-04-30T08:30:19.762Z,81.80
2018-04-30T08:31:22.306Z,81.70
2018-04-30T08:32:24.816Z,81.50
2018-04-30T08:33:27.377Z,80.80
2018-04-30T08:34:29.872Z,81.20
2018-04-30T08:35:32.359Z,82.00
2018-04-30T08:36:34.887Z,82.90
2018-04-30T08:37:37.369Z,82.40
2018-04-30T08:38:39.885Z,83.60
2018-04-30T08:39:42.434Z,84.50
2018-04-30T08:40:44.912Z,83.70
2018-04-30T08:41:47.397Z,82.80
2018-04-30T08:42:49.871Z,82.90
2018-04-30T08:43:52.402Z,83.50
2018-04-30T08:44:55.028Z,83.90
2018-04-30T08:45:57.501Z,86.00
2018-04-30T08:46:59.973Z,85.80
2018-04-30T08:48:02.514Z,85.90
2018-04-30T08:49:04.986Z,85.80
2018-04-30T08:50:07.466Z,86.00
2018-04-30T08:51:09.960Z,86.80
2018-04-30T08:52:13.315Z,87.70
2018-04-30T08:53:15.778Z,87.50
2018-04-30T08:54:18.299Z,88.10
2018-04-30T08:55:20.764Z,88.60
2018-04-30T08:56:24.058Z,88.30
2018-04-30T08:57:26.552Z,88.30
2018-04-30T08:58:29.124Z,88.60
2018-04-30T08:59:31.623Z,88.30
2018-04-30T09:00:34.246Z,88.00
2018-04-30T09:01:37.505Z,87.80
2018-04-30T09:02:40.009Z,87.80
2018-04-30T09:03:42.506Z,88.40
2018-04-30T09:04:45.833Z,89.40
2018-04-30T09:05:48.361Z,88.70
2018-04-30T09:06:50.856Z,88.90
2018-04-30T09:07:53.336Z,90.10
2018-04-30T09:08:56.616Z,90.10
2018-04-30T09:09:59.092Z,90.10
2018-04-30T09:11:02.320Z,89.60
2018-04-30T09:12:04.879Z,90.20
2018-04-30T09:13:08.165Z,90.00
2018-04-30T09:14:10.655Z,90.00
2018-04-30T09:15:13.193Z,90.40
2018-04-30T09:16:15.733Z,90.10
2018-04-30T09:17:18.256Z,90.00
2018-04-30T09:18:20.776Z,90.60
2018-04-30T09:19:23.536Z,91.00
2018-04-30T09:20:26.169Z,90.40
2018-04-30T09:21:28.711Z,90.60
2018-04-30T09:22:32.230Z,90.50
2018-04-30T09:23:34.772Z,90.50
2018-04-30T09:24:37.258Z,90.80
2018-04-30T09:25:39.721Z,90.80
2018-04-30T09:26:42.248Z,90.60
2018-04-30T09:27:44.759Z,90.70
2018-04-30T09:28:47.354Z,90.60
2018-04-30T09:29:49.829Z,90.50
2018-04-30T09:30:52.412Z,90.20
2018-04-30T09:31:54.974Z,88.90
2018-04-30T09:32:57.469Z,88.90
2018-04-30T09:33:59.992Z,89.10
2018-04-30T09:35:02.609Z,89.60
2018-04-30T09:36:05.075Z,88.70
2018-04-30T09:37:07.544Z,87.80
2018-04-30T09:38:10.197Z,88.50
2018-04-30T09:39:12.737Z,89.00
2018-04-30T09:40:15.262Z,87.70
2018-04-30T09:41:17.769Z,87.80
2018-04-30T09:42:20.248Z,87.30
2018-04-30T09:43:22.763Z,87.40
2018-04-30T09:44:25.267Z,87.60
2018-04-30T09:45:27.759Z,88.20
2018-04-30T09:46:30.241Z,88.40
2018-04-30T09:47:32.729Z,87.20
2018-04-30T09:48:35.241Z,88.40
2018-04-30T09:49:37.746Z,87.80
2018-04-30T09:50:40.987Z,88.10
2018-04-30T09:51:44.229Z,88.60
2018-04-30T09:52:47.801Z,89.10
2018-04-30T09:53:50.302Z,89.10
2018-04-30T09:54:52.800Z,89.50
2018-04-30T09:55:55.288Z,90.00
2018-04-30T09:56:57.795Z,89.20
2018-04-30T09:58:01.411Z,89.70
2018-04-30T09:59:04.612Z,90.00
2018-04-30T10:00:07.131Z,89.90
2018-04-30T10:01:09.698Z,90.10
2018-04-30T10:02:12.190Z,90.30
2018-04-30T10:03:14.667Z,90.70
2018-04-30T10:04:17.918Z,91.30
2018-04-30T10:05:21.182Z,91.10
2018-04-30T10:06:23.671Z,91.10
2018-04-30T10:07:27.687Z,91.90
2018-04-30T10:08:30.191Z,91.90
2018-04-30T10:09:32.689Z,92.20
2018-04-30T10:10:35.945Z,92.90
2018-04-30T10:11:39.250Z,93.50
2018-04-30T10:12:41.756Z,93.40
2018-04-30T10:13:44.239Z,93.60
2018-04-30T10:14:47.505Z,93.40
2018-04-30T10:15:50.012Z,93.40
2018-04-30T10:16:52.571Z,93.50
2018-04-30T10:17:55.075Z,93.70
2018-04-30T10:18:57.603Z,94.00
2018-04-30T10:20:00.104Z,93.80
2018-04-30T10:21:04.209Z,94.10
2018-04-30T10:22:06.698Z,94.10
2018-04-30T10:23:09.985Z,94.70
2018-04-30T10:24:12.548Z,94.60
2018-04-30T10:25:15.044Z,94.30
2018-04-30T10:26:17.516Z,94.30
2018-04-30T10:27:20.762Z,94.30
2018-04-30T10:28:24.036Z,94.30
2018-04-30T10:29:26.539Z,94.20
2018-04-30T10:30:29.808Z,94.20
2018-04-30T10:31:32.403Z,94.20
2018-04-30T10:32:34.856Z,94.60
2018-04-30T10:33:37.344Z,94.60
2018-04-30T10:34:40.613Z,95.20
2018-04-30T10:35:43.110Z,95.10
2018-04-30T10:36:46.354Z,95.60
2018-04-30T10:37:49.711Z,95.00
2018-04-30T10:38:52.142Z,95.00
2018-04-30T10:39:54.639Z,95.20
2018-04-30T10:40:57.930Z,95.00
2018-04-30T10:42:00.471Z,94.90
2018-04-30T10:43:03.023Z,94.90
2018-04-30T10:44:05.500Z,94.10
2018-04-30T10:45:08.072Z,94.20
2018-04-30T10:46:11.352Z,94.40
2018-04-30T10:47:13.837Z,94.50
2018-04-30T10:48:17.298Z,94.50
2018-04-30T10:49:19.869Z,94.60
2018-04-30T10:50:22.357Z,94.60
2018-04-30T10:51:24.812Z,94.80
2018-04-30T10:52:27.276Z,94.90
2018-04-30T10:53:29.768Z,95.20
2018-04-30T10:54:32.305Z,95.10
2018-04-30T10:55:34.834Z,95.40
2018-04-30T10:56:37.327Z,95.50
2018-04-30T10:57:39.814Z,95.40
2018-04-30T10:58:42.270Z,95.40
2018-04-30T10:59:45.544Z,95.40
2018-04-30T11:00:48.069Z,95.40
2018-04-30T11:01:50.549Z,95.50
2018-04-30T11:02:53.847Z,95.80
2018-04-30T11:03:56.394Z,95.50
2018-04-30T11:04:58.889Z,95.40
2018-04-30T11:06:01.372Z,95.30
2018-04-30T11:07:03.831Z,95.50
2018-04-30T11:08:06.325Z,95.30
2018-04-30T11:09:09.572Z,95.50
2018-04-30T11:10:12.154Z,95.50
2018-04-30T11:11:14.654Z,95.70
2018-04-30T11:12:17.142Z,95.80
2018-04-30T11:13:19.775Z,96.00
2018-04-30T11:14:23.026Z,95.90
2018-04-30T11:15:26.302Z,95.90
2018-04-30T11:16:28.803Z,95.90
2018-04-30T11:17:32.040Z,96.20
2018-04-30T11:18:34.528Z,96.20
2018-04-30T11:19:37.050Z,96.20
2018-04-30T11:20:39.542Z,96.30
2018-04-30T11:21:42.290Z,96.10
2018-04-30T11:22:44.853Z,95.90
2018-04-30T11:23:47.255Z,95.70
2018-04-30T11:24:49.779Z,95.30
2018-04-30T11:25:52.307Z,95.50
2018-04-30T11:26:54.794Z,95.40
2018-04-30T11:27:57.299Z,95.00
2018-04-30T11:29:00.596Z,94.40
2018-04-30T11:30:03.105Z,94.30
2018-04-30T11:31:05.600Z,94.20
2018-04-30T11:32:08.100Z,94.20
2018-04-30T11:33:10.613Z,94.40
2018-04-30T11:34:13.294Z,94.10
2018-04-30T11:35:15.762Z,94.10
2018-04-30T11:36:18.360Z,94.30
2018-04-30T11:37:21.050Z,94.10
2018-04-30T11:38:24.382Z,93.70
2018-04-30T11:39:27.696Z,93.90
2018-04-30T11:40:30.208Z,93.70
2018-04-30T11:41:32.913Z,93.80
2018-04-30T11:42:35.402Z,93.80
2018-04-30T11:43:37.884Z,93.90
2018-04-30T11:44:40.359Z,93.90
2018-04-30T11:45:43.670Z,93.40
2018-04-30T11:46:46.261Z,93.40
2018-04-30T11:47:48.766Z,93.10
2018-04-30T11:48:52.671Z,93.40
2018-04-30T11:49:55.759Z,93.40
2018-04-30T11:50:59.194Z,93.10
2018-04-30T11:52:01.699Z,93.10
2018-04-30T11:53:04.282Z,93.00
2018-04-30T11:54:06.777Z,92.80
2018-04-30T11:55:10.052Z,92.90
2018-04-30T11:56:12.577Z,92.80
2018-04-30T11:57:15.101Z,92.40
2018-04-30T11:58:17.725Z,92.80
2018-04-30T11:59:20.287Z,92.50
2018-04-30T12:00:22.892Z,92.50
2018-04-30T12:01:26.281Z,92.50
2018-04-30T12:02:29.128Z,92.40
2018-04-30T12:03:31.669Z,92.20
2018-04-30T12:04:35.867Z,91.70
2018-04-30T12:05:38.467Z,91.70
2018-04-30T12:06:41.122Z,91.40
2018-04-30T12:07:43.913Z,91.30
2018-04-30T12:08:48.985Z,91.40
2018-04-30T12:09:52.703Z,91.40
2018-04-30T12:10:55.483Z,91.10
2018-04-30T12:11:58.101Z,91.00
2018-04-30T12:13:00.660Z,90.60
2018-04-30T12:14:03.188Z,90.70
2018-04-30T12:15:05.877Z,90.90
2018-04-30T12:16:09.202Z,90.50
2018-04-30T12:17:11.833Z,90.50
2018-04-30T12:18:14.306Z,90.60
2018-04-30T12:19:16.795Z,91.00
2018-04-30T12:20:19.381Z,91.40
2018-04-30T12:21:21.955Z,92.00
2018-04-30T12:22:24.871Z,92.40
2018-04-30T12:23:27.351Z,92.10
2018-04-30T12:24:30.662Z,92.40
2018-04-30T12:25:33.156Z,92.50
2018-04-30T12:26:35.735Z,92.50
2018-04-30T12:27:38.952Z,91.60
2018-04-30T12:28:48.391Z,91.60
2018-04-30T12:29:51.856Z,91.50
2018-04-30T12:30:54.230Z,91.90
2018-04-30T12:31:57.502Z,91.60
2018-04-30T12:33:00.028Z,91.60
2018-04-30T12:34:02.538Z,91.40
2018-04-30T12:35:05.059Z,91.50
2018-04-30T12:36:08.284Z,91.60
2018-04-30T12:37:11.571Z,91.90
2018-04-30T12:38:14.038Z,91.60
2018-04-30T12:39:16.502Z,91.60
2018-04-30T12:40:18.980Z,91.20
2018-04-30T12:41:21.436Z,91.40
2018-04-30T12:42:24.693Z,91.50
2018-04-30T12:43:27.165Z,91.50
2018-04-30T12:44:29.628Z,91.50
2018-04-30T12:45:32.876Z,90.90
2018-04-30T12:46:35.356Z,90.80
2018-04-30T12:47:37.844Z,90.70
2018-04-30T12:48:40.322Z,90.60
2018-04-30T12:49:43.630Z,90.00
2018-04-30T12:50:46.243Z,90.20
2018-04-30T12:51:48.676Z,90.20
2018-04-30T12:52:51.167Z,89.10
2018-04-30T12:53:53.627Z,89.70
2018-04-30T12:54:56.109Z,89.10
2018-04-30T12:55:58.687Z,90.10
2018-04-30T12:57:01.173Z,89.50
2018-04-30T12:58:03.815Z,89.50
2018-04-30T12:59:06.605Z,89.00
2018-04-30T13:00:09.101Z,89.60
2018-04-30T13:01:11.588Z,89.80
2018-04-30T13:02:14.201Z,89.80
2018-04-30T13:03:17.468Z,88.60
2018-04-30T13:04:19.996Z,88.60
2018-04-30T13:05:22.473Z,88.00
2018-04-30T13:06:24.960Z,88.60
2018-04-30T13:07:27.549Z,87.70
2018-04-30T13:08:30.112Z,88.40
2018-04-30T13:09:32.568Z,88.70
2018-04-30T13:10:35.088Z,88.00
2018-04-30T13:11:37.717Z,88.10
2018-04-30T13:12:40.244Z,89.40
2018-04-30T13:13:42.720Z,89.50
2018-04-30T13:14:45.187Z,89.10
2018-04-30T13:15:48.061Z,89.00
2018-04-30T13:16:51.322Z,89.00
2018-04-30T13:17:53.804Z,88.90
2018-04-30T13:18:56.271Z,89.10
2018-04-30T13:19:58.733Z,89.30
2018-04-30T13:21:01.202Z,89.00
2018-04-30T13:22:04.451Z,88.80
2018-04-30T13:23:06.928Z,88.80
2018-04-30T13:24:09.411Z,88.90
2018-04-30T13:25:12.662Z,88.40
2018-04-30T13:26:15.848Z,88.40
2018-04-30T13:27:19.930Z,88.70
2018-04-30T13:28:23.188Z,88.70
2018-04-30T13:29:25.667Z,88.70
2018-04-30T13:30:28.147Z,88.10
2018-04-30T13:31:30.721Z,87.90